Map

Track Data

SID SEASON NUMBER BASIN SUBBASIN NAME ISO_TIME NATURE LAT LON WMO_WIND WMO_PRES WMO_AGENCY TRACK_TYPE DIST2LAND LANDFALL IFLAG USA_AGENCY USA_ATCF_ID USA_LAT USA_LON USA_RECORD USA_STATUS USA_WIND USA_PRES USA_SSHS USA_R34_NE USA_R34_SE USA_R34_SW USA_R34_NW USA_R50_NE USA_R50_SE USA_R50_SW USA_R50_NW USA_R64_NE USA_R64_SE USA_R64_SW USA_R64_NW USA_POCI USA_ROCI USA_RMW USA_EYE TOKYO_LAT TOKYO_LON TOKYO_GRADE TOKYO_WIND TOKYO_PRES TOKYO_R50_DIR TOKYO_R50_LONG TOKYO_R50_SHORT TOKYO_R30_DIR TOKYO_R30_LONG TOKYO_R30_SHORT TOKYO_LAND CMA_LAT CMA_LON CMA_CAT CMA_WIND CMA_PRES HKO_LAT HKO_LON HKO_CAT HKO_WIND HKO_PRES NEWDELHI_LAT NEWDELHI_LON NEWDELHI_GRADE NEWDELHI_WIND NEWDELHI_PRES NEWDELHI_CI NEWDELHI_DP NEWDELHI_POCI REUNION_LAT REUNION_LON REUNION_TYPE REUNION_WIND REUNION_PRES REUNION_TNUM REUNION_CI REUNION_RMW REUNION_R34_NE REUNION_R34_SE REUNION_R34_SW REUNION_R34_NW REUNION_R50_NE REUNION_R50_SE REUNION_R50_SW REUNION_R50_NW REUNION_R64_NE REUNION_R64_SE REUNION_R64_SW REUNION_R64_NW BOM_LAT BOM_LON BOM_TYPE BOM_WIND BOM_PRES BOM_TNUM BOM_CI BOM_RMW BOM_R34_NE BOM_R34_SE BOM_R34_SW BOM_R34_NW BOM_R50_NE BOM_R50_SE BOM_R50_SW BOM_R50_NW BOM_R64_NE BOM_R64_SE BOM_R64_SW BOM_R64_NW BOM_ROCI BOM_POCI BOM_EYE BOM_POS_METHOD BOM_PRES_METHOD NADI_LAT NADI_LON NADI_CAT NADI_WIND NADI_PRES WELLINGTON_LAT WELLINGTON_LON WELLINGTON_WIND WELLINGTON_PRES DS824_LAT DS824_LON DS824_STAGE DS824_WIND DS824_PRES TD9636_LAT TD9636_LON TD9636_STAGE TD9636_WIND TD9636_PRES TD9635_LAT TD9635_LON TD9635_WIND TD9635_PRES TD9635_ROCI NEUMANN_LAT NEUMANN_LON NEUMANN_CLASS NEUMANN_WIND NEUMANN_PRES MLC_LAT MLC_LON MLC_CLASS MLC_WIND MLC_PRES USA_GUST BOM_GUST BOM_GUST_PER REUNION_GUST REUNION_GUST_PER USA_SEAHGT USA_SEARAD_NE USA_SEARAD_SE USA_SEARAD_SW USA_SEARAD_NW STORM_SPEED STORM_DIR
1963253N26293 1963 83 NA NA NOT_NAMED 1963-09-09 12:00:00 TS 25.5000 -67.5000 25 hurdat_atl main 707 707 O_____________ hurdat_atl AL031963 25.5000 -67.5000 TD 25 -1 16 6
1963253N26293 1963 83 NA NA NOT_NAMED 1963-09-09 15:00:00 TS 26.3001 -67.4029 main 794 794 P_____________ AL031963 26.3001 -67.4029 TD 25 -1 16 6
1963253N26293 1963 83 NA NA NOT_NAMED 1963-09-09 18:00:00 TS 27.1000 -67.3000 25 hurdat_atl main 876 876 O_____________ hurdat_atl AL031963 27.1000 -67.3000 TD 25 -1 16 7
1963253N26293 1963 83 NA NA NOT_NAMED 1963-09-09 21:00:00 TS 27.8999 -67.1794 main 950 950 P_____________ AL031963 27.8999 -67.1794 TD 25 -1 16 9
1963253N26293 1963 83 NA NA NOT_NAMED 1963-09-10 00:00:00 TS 28.7000 -67.0000 25 hurdat_atl main 1032 1032 O_____________ hurdat_atl AL031963 28.7000 -67.0000 TD 25 -1 17 13
1963253N26293 1963 83 NA NA NOT_NAMED 1963-09-10 03:00:00 TS 29.4999 -66.7445 main 1080 1044 P_____________ AL031963 29.4999 -66.7445 TD 25 -1 17 18
1963253N26293 1963 83 NA NA NOT_NAMED 1963-09-10 06:00:00 TS 30.3000 -66.4000 25 hurdat_atl main 1044 1021 O_____________ hurdat_atl AL031963 30.3000 -66.4000 TD 25 -1 17 22
1963253N26293 1963 83 NA NA NOT_NAMED 1963-09-10 09:00:00 TS 31.1146 -66.0091 main 1023 1012 P_____________ AL031963 31.1146 -66.0091 TD 27 -1 18 26
1963253N26293 1963 83 NA NA NOT_NAMED 1963-09-10 12:00:00 TS 31.9000 -65.5000 30 1007 hurdat_atl main 1018 1016 O_____________ hurdat_atl AL031963 31.9000 -65.5000 TD 30 1007 -1 18 33
1963253N26293 1963 83 NA NA NOT_NAMED 1963-09-10 15:00:00 TS 32.6221 -64.8665 main 1035 1035 P_____________ AL031963 32.6221 -64.8665 TD 32 1005 -1 18 40
1963253N26293 1963 83 NA NA NOT_NAMED 1963-09-10 18:00:00 TS 33.3000 -64.1000 35 1003 hurdat_atl main 1069 1042 O_____________ hurdat_atl AL031963 33.3000 -64.1000 TS 35 1003 0 19 45
1963253N26293 1963 83 NA NA NOT_NAMED 1963-09-10 21:00:00 TS 33.9641 -63.2660 main 1038 1021 P_____________ AL031963 33.9641 -63.2660 TS 35 0 20 49
1963253N26293 1963 83 NA NA NOT_NAMED 1963-09-11 00:00:00 TS 34.6000 -62.3000 35 hurdat_atl main 1023 985 O_____________ hurdat_atl AL031963 34.6000 -62.3000 TS 35 0 21 53
1963253N26293 1963 83 NA NA NOT_NAMED 1963-09-11 03:00:00 TS 35.2522 -61.1957 main 977 964 P_____________ AL031963 35.2522 -61.1957 TS 37 0 22 57
1963253N26293 1963 83 NA NA NOT_NAMED 1963-09-11 06:00:00 TS 35.8000 -60.0000 40 hurdat_atl main 968 966 O_____________ hurdat_atl AL031963 35.8000 -60.0000 TS 40 0 21 65
1963253N26293 1963 83 NA NA NOT_NAMED 1963-09-11 09:00:00 TS 36.1517 -58.7977 main 982 982 P_____________ AL031963 36.1517 -58.7977 TS 45 0 20 73
1963253N26293 1963 83 NA NA NOT_NAMED 1963-09-11 12:00:00 TS 36.4000 -57.6000 50 hurdat_atl main 1021 1018 O_____________ hurdat_atl AL031963 36.4000 -57.6000 TS 50 0 20 75
1963253N26293 1963 83 NA NA NOT_NAMED 1963-09-11 15:00:00 TS 36.6577 -56.3820 main 1023 1023 P_____________ AL031963 36.6577 -56.3820 TS 55 0 19 75
1963253N26293 1963 83 NA NA NOT_NAMED 1963-09-11 18:00:00 TS 36.9000 -55.3000 60 996 hurdat_atl main 1042 1040 O_____________ hurdat_atl AL031963 36.9000 -55.3000 TS 60 996 0 16 72
1963253N26293 1963 83 NA NA NOT_NAMED 1963-09-11 21:00:00 TS 37.1639 -54.4448 main 1047 1023 P_____________ AL031963 37.1639 -54.4448 TS 62 0 13 67
1963253N26293 1963 83 NA NA NOT_NAMED 1963-09-12 00:00:00 TS 37.4000 -53.8000 65 hurdat_atl main 1023 1001 O_____________ hurdat_atl AL031963 37.4000 -53.8000 HU 65 1 10 66
1963253N26293 1963 83 NA NA NOT_NAMED 1963-09-12 03:00:00 TS 37.5718 -53.2894 main 1001 990 P_____________ AL031963 37.5718 -53.2894 HU 67 1 8 67
1963253N26293 1963 83 NA NA NOT_NAMED 1963-09-12 06:00:00 TS 37.7000 -52.9000 70 hurdat_atl main 990 979 O_____________ hurdat_atl AL031963 37.7000 -52.9000 HU 70 1 6 70
1963253N26293 1963 83 NA NA NOT_NAMED 1963-09-12 09:00:00 TS 37.7922 -52.5420 main 980 970 P_____________ AL031963 37.7922 -52.5420 HU 70 1 6 70
1963253N26293 1963 83 NA NA NOT_NAMED 1963-09-12 12:00:00 TS 37.9000 -52.2000 70 hurdat_atl main 971 952 O_____________ hurdat_atl AL031963 37.9000 -52.2000 HU 70 1 6 65
1963253N26293 1963 83 NA NA NOT_NAMED 1963-09-12 15:00:00 TS 38.0624 -51.8146 main 952 933 P_____________ AL031963 38.0624 -51.8146 HU 67 1 7 58
1963253N26293 1963 83 NA NA NOT_NAMED 1963-09-12 18:00:00 TS 38.3000 -51.4000 65 990 hurdat_atl main 934 907 O_____________ hurdat_atl AL031963 38.3000 -51.4000 HU 65 990 1 8 51
1963253N26293 1963 83 NA NA NOT_NAMED 1963-09-12 21:00:00 TS 38.5897 -50.9715 main 907 873 P_____________ AL031963 38.5897 -50.9715 HU 62 0 10 45
1963253N26293 1963 83 NA NA NOT_NAMED 1963-09-13 00:00:00 TS 39.0000 -50.5000 60 hurdat_atl main 873 830 O_____________ hurdat_atl AL031963 39.0000 -50.5000 TS 60 0 12 39
1963253N26293 1963 83 NA NA NOT_NAMED 1963-09-13 03:00:00 TS 39.5473 -49.9793 main 830 774 P_____________ AL031963 39.5473 -49.9793 TS 57 0 15 35
1963253N26293 1963 83 NA NA NOT_NAMED 1963-09-13 06:00:00 TS 40.2000 -49.4000 55 hurdat_atl main 774 734 O_____________ hurdat_atl AL031963 40.2000 -49.4000 TS 55 0 16 35
1963253N26293 1963 83 NA NA NOT_NAMED 1963-09-13 09:00:00 TS 40.8472 -48.7777 main 734 687 P_____________ AL031963 40.8472 -48.7777 TS 52 0 17 35
1963253N26293 1963 83 NA NA NOT_NAMED 1963-09-13 12:00:00 TS 41.6000 -48.1000 50 hurdat_atl main 687 648 O_____________ hurdat_atl AL031963 41.6000 -48.1000 TS 50 0 19 31
1963253N26293 1963 83 NA NA NOT_NAMED 1963-09-13 15:00:00 TS 42.4875 -47.4559 main 640 620 P_____________ AL031963 42.4875 -47.4559 TS 50 0 22 30
1963253N26293 1963 83 NA NA NOT_NAMED 1963-09-13 18:00:00 TS 43.5000 -46.6000 50 hurdat_atl main 619 618 O_____________ hurdat_atl AL031963 43.5000 -46.6000 TS 50 0 26 36
1963253N26293 1963 83 NA NA NOT_NAMED 1963-09-13 21:00:00 TS 44.5832 -45.3766 main 636 636 P_____________ AL031963 44.5832 -45.3766 TS 50 0 30 42
1963253N26293 1963 83 NA NA NOT_NAMED 1963-09-14 00:00:00 TS 45.7000 -43.8000 50 hurdat_atl main 698 698 O_____________ hurdat_atl AL031963 45.7000 -43.8000 TS 50 0 32 47
1963253N26293 1963 83 NA NA NOT_NAMED 1963-09-14 03:00:00 TS 46.7625 -41.9858 main 801 801 P_____________ AL031963 46.7625 -41.9858 TS 50 0 34 52
1963253N26293 1963 83 NA NA NOT_NAMED 1963-09-14 06:00:00 TS 47.8000 -39.9000 50 hurdat_atl main 946 946 O_____________ hurdat_atl AL031963 47.8000 -39.9000 TS 50 0 36 55
1963253N26293 1963 83 NA NA NOT_NAMED 1963-09-14 09:00:00 TS 48.8174 -37.6222 main 1115 1115 P_____________ AL031963 48.8174 -37.6222 TS 50 0 37 57
1963253N26293 1963 83 NA NA NOT_NAMED 1963-09-14 12:00:00 TS 49.8000 -35.2000 50 hurdat_atl main 1244 O_____________ hurdat_atl AL031963 49.8000 -35.2000 TS 50 0 37 58

About IBTrACS Database

This database is a web-friendly format of International Best Track Archive for Climate Stewardship (IBTrACS), a global best track data archive curated by NOAA dating back to 1842.

Updated: 2021-12-01